createdAt,value
2023-03-24T00:01:18.314Z,20.01
2023-03-24T00:04:21.575Z,19.88
2023-03-24T00:07:25.326Z,19.78
2023-03-24T00:10:30.463Z,19.80
2023-03-24T00:13:38.369Z,19.84
2023-03-24T00:16:43.188Z,19.85
2023-03-24T00:19:47.603Z,19.78
2023-03-24T00:22:57.033Z,19.70
2023-03-24T00:26:02.703Z,19.66
2023-03-24T00:29:06.104Z,19.80
2023-03-24T00:32:08.419Z,19.79
2023-03-24T00:35:12.810Z,19.96
2023-03-24T00:38:14.356Z,20.05
2023-03-24T00:41:19.921Z,19.96
2023-03-24T00:44:21.871Z,19.98
2023-03-24T00:47:26.104Z,19.90
2023-03-24T00:50:27.823Z,19.90
2023-03-24T00:53:30.030Z,19.84
2023-03-24T00:56:33.772Z,19.86
2023-03-24T00:59:42.417Z,19.83
2023-03-24T01:02:46.462Z,19.94
2023-03-24T01:05:48.655Z,19.95
2023-03-24T01:08:53.780Z,19.89
2023-03-24T01:11:56.132Z,19.90
2023-03-24T01:15:00.046Z,19.89
2023-03-24T01:18:02.327Z,19.75
2023-03-24T01:21:04.126Z,20.42
2023-03-24T01:24:06.266Z,20.71
2023-03-24T01:27:07.898Z,20.55
2023-03-24T01:30:13.854Z,20.33
2023-03-24T01:33:15.704Z,20.20
2023-03-24T01:36:17.339Z,20.06
2023-03-24T01:39:18.992Z,20.05
2023-03-24T01:42:23.970Z,20.14
2023-03-24T01:45:53.213Z,20.43
2023-03-24T01:48:54.728Z,20.70
2023-03-24T01:52:00.964Z,20.71
2023-03-24T01:55:08.385Z,20.51
2023-03-24T01:58:10.251Z,20.27
2023-03-24T02:01:29.872Z,20.10
2023-03-24T02:04:48.540Z,20.15
2023-03-24T02:08:01.561Z,20.10
2023-03-24T02:11:03.504Z,20.15
2023-03-24T02:14:14.242Z,20.21
2023-03-24T02:18:13.424Z,20.22
2023-03-24T02:21:40.401Z,20.63
2023-03-24T02:25:01.803Z,20.81
2023-03-24T02:28:15.548Z,21.24
2023-03-24T02:31:24.785Z,21.47
2023-03-24T02:34:26.408Z,21.56
2023-03-24T02:37:45.826Z,21.51
2023-03-24T02:40:57.627Z,21.55
2023-03-24T02:44:01.722Z,21.63
2023-03-24T02:47:15.333Z,21.63
2023-03-24T02:50:41.941Z,21.75
2023-03-24T02:54:02.116Z,21.71
2023-03-24T02:57:16.746Z,21.68
2023-03-24T03:00:59.494Z,21.49
2023-03-24T03:04:22.276Z,21.38
2023-03-24T03:07:27.375Z,21.33
2023-03-24T03:10:42.541Z,21.43
2023-03-24T03:14:02.329Z,21.34
2023-03-24T03:17:18.732Z,21.24
2023-03-24T03:20:24.792Z,21.20
2023-03-24T03:23:35.448Z,21.19
2023-03-24T03:26:37.197Z,21.16
2023-03-24T03:29:41.895Z,21.13
2023-03-24T03:32:54.466Z,21.08
2023-03-24T03:36:17.155Z,21.15
2023-03-24T03:39:27.700Z,21.13
2023-03-24T03:42:31.817Z,21.10
2023-03-24T03:45:36.772Z,21.07
2023-03-24T03:48:39.921Z,21.05
2023-03-24T03:51:41.585Z,21.01
2023-03-24T03:54:44.253Z,21.10
2023-03-24T03:57:46.484Z,21.19
2023-03-24T04:00:56.542Z,21.24
2023-03-24T04:04:34.007Z,21.71
2023-03-24T04:08:14.409Z,22.03
2023-03-24T04:11:46.241Z,21.81
2023-03-24T04:15:33.156Z,20.70
2023-03-24T04:19:12.655Z,19.54
2023-03-24T04:22:14.306Z,18.14
2023-03-24T04:25:22.667Z,17.02
2023-03-24T04:28:38.541Z,16.61
2023-03-24T04:31:44.891Z,16.86
2023-03-24T04:34:54.858Z,16.91
2023-03-24T04:38:18.329Z,16.78
2023-03-24T04:41:28.280Z,17.00
2023-03-24T04:44:41.782Z,17.22
2023-03-24T04:48:08.645Z,17.29
2023-03-24T04:51:19.892Z,17.50
2023-03-24T04:54:35.778Z,17.42
2023-03-24T04:57:40.566Z,17.32
2023-03-24T05:00:44.174Z,17.44
2023-03-24T05:03:46.004Z,17.64
2023-03-24T05:06:49.666Z,17.71
2023-03-24T05:09:54.153Z,17.74
2023-03-24T05:12:56.323Z,17.91
2023-03-24T05:16:16.444Z,18.02
2023-03-24T05:19:26.875Z,18.04
2023-03-24T05:22:28.535Z,18.11
2023-03-24T05:25:30.311Z,18.18
2023-03-24T05:28:32.060Z,18.06
2023-03-24T05:31:33.811Z,18.05
2023-03-24T05:34:43.299Z,18.12
2023-03-24T05:37:47.185Z,18.13
2023-03-24T05:40:48.846Z,18.02
2023-03-24T05:43:52.727Z,17.99
2023-03-24T05:46:54.796Z,17.93
2023-03-24T05:49:56.558Z,18.07
2023-03-24T05:52:58.215Z,18.16
2023-03-24T05:56:18.414Z,18.24
2023-03-24T05:59:46.175Z,18.33
2023-03-24T06:03:14.250Z,18.44
2023-03-24T06:06:20.618Z,18.00
2023-03-24T06:09:22.180Z,18.17
2023-03-24T06:12:24.140Z,18.34
2023-03-24T06:15:39.600Z,18.36
2023-03-24T06:18:54.385Z,18.31
2023-03-24T06:22:19.245Z,18.31
2023-03-24T06:25:21.563Z,18.28
2023-03-24T06:28:43.496Z,18.20
2023-03-24T06:31:50.065Z,18.22
2023-03-24T06:34:52.848Z,18.23
2023-03-24T06:38:14.387Z,18.26
2023-03-24T06:41:16.801Z,18.28
2023-03-24T06:44:18.579Z,18.39
2023-03-24T06:47:20.480Z,18.41
2023-03-24T06:50:23.311Z,18.29
2023-03-24T06:53:25.003Z,18.24
2023-03-24T06:56:27.369Z,18.27
2023-03-24T06:59:32.834Z,18.07
2023-03-24T07:02:35.832Z,18.18
2023-03-24T07:05:39.119Z,18.16
2023-03-24T07:08:40.812Z,18.27
2023-03-24T07:11:43.012Z,18.39
2023-03-24T07:14:44.548Z,18.32
2023-03-24T07:17:47.219Z,18.39
2023-03-24T07:21:12.286Z,18.43
2023-03-24T07:24:13.926Z,18.37
2023-03-24T07:27:34.153Z,17.78
2023-03-24T07:30:40.638Z,17.57
2023-03-24T07:33:43.478Z,17.28
2023-03-24T07:36:44.969Z,16.89
2023-03-24T07:39:50.206Z,16.20
2023-03-24T07:42:51.858Z,16.13
2023-03-24T07:46:11.960Z,15.65
2023-03-24T07:49:19.371Z,15.03
2023-03-24T07:52:34.839Z,15.26
2023-03-24T07:55:39.916Z,15.52
2023-03-24T07:58:50.260Z,15.55
2023-03-24T08:02:00.425Z,15.57
2023-03-24T08:05:14.242Z,15.69
2023-03-24T08:08:18.544Z,15.77
2023-03-24T08:11:19.998Z,15.84
2023-03-24T08:14:21.730Z,15.82
2023-03-24T08:17:23.468Z,15.89
2023-03-24T08:20:27.243Z,16.03
2023-03-24T08:23:29.217Z,16.25
2023-03-24T08:26:31.100Z,16.66
2023-03-24T08:29:36.218Z,16.92
2023-03-24T08:32:38.185Z,17.10
2023-03-24T08:35:40.889Z,17.07
2023-03-24T08:38:42.464Z,17.40
2023-03-24T08:41:45.384Z,17.43
2023-03-24T08:44:47.132Z,17.92
2023-03-24T08:47:50.578Z,17.95
2023-03-24T08:50:52.372Z,17.84
2023-03-24T08:53:55.358Z,17.92
2023-03-24T08:56:56.834Z,18.27
2023-03-24T08:59:58.374Z,18.19
2023-03-24T09:03:01.208Z,18.31
2023-03-24T09:06:02.912Z,18.25
2023-03-24T09:09:04.465Z,18.52
2023-03-24T09:12:06.341Z,18.72
2023-03-24T09:15:10.733Z,18.78
2023-03-24T09:18:13.225Z,18.79
2023-03-24T09:21:14.881Z,18.75
2023-03-24T09:24:16.486Z,18.74
2023-03-24T09:27:18.077Z,19.06
2023-03-24T09:30:19.772Z,19.20
2023-03-24T09:33:21.332Z,19.13
2023-03-24T09:36:23.204Z,19.27
2023-03-24T09:39:24.721Z,19.32
2023-03-24T09:42:33.854Z,19.15
2023-03-24T09:45:48.687Z,19.08
2023-03-24T09:48:59.500Z,18.97
2023-03-24T09:52:05.925Z,19.09
2023-03-24T09:55:14.457Z,19.31
2023-03-24T09:58:17.882Z,19.45
2023-03-24T10:01:20.023Z,19.30
2023-03-24T10:04:26.490Z,18.93
2023-03-24T10:07:47.178Z,18.63
2023-03-24T10:10:59.301Z,18.56
2023-03-24T10:14:24.534Z,18.00
2023-03-24T10:17:41.117Z,17.70
2023-03-24T10:20:50.042Z,17.13
2023-03-24T10:24:02.398Z,16.77
2023-03-24T10:27:12.333Z,16.55
2023-03-24T10:30:19.421Z,16.68
2023-03-24T10:33:20.960Z,17.00
2023-03-24T10:36:25.025Z,17.13
2023-03-24T10:39:37.876Z,17.00
2023-03-24T10:42:45.046Z,17.37
2023-03-24T10:45:52.794Z,17.24
2023-03-24T10:49:12.762Z,17.32
2023-03-24T10:52:15.524Z,17.52
2023-03-24T10:55:20.226Z,17.56
2023-03-24T10:58:38.442Z,17.65
2023-03-24T11:01:41.404Z,17.97
2023-03-24T11:05:03.672Z,18.02
2023-03-24T11:08:31.333Z,17.91
2023-03-24T11:11:32.898Z,17.95
2023-03-24T11:14:44.891Z,18.06
2023-03-24T11:17:49.012Z,18.22
2023-03-24T11:20:57.238Z,18.27
2023-03-24T11:24:01.552Z,18.31
2023-03-24T11:27:03.863Z,18.42
2023-03-24T11:30:06.074Z,18.48
2023-03-24T11:33:07.657Z,18.62
2023-03-24T11:36:35.850Z,18.95
2023-03-24T11:39:37.626Z,18.97
2023-03-24T11:42:47.628Z,18.87
2023-03-24T11:46:05.171Z,18.47
2023-03-24T11:49:10.178Z,18.83
2023-03-24T11:52:23.493Z,18.75
2023-03-24T11:55:49.557Z,18.83
2023-03-24T11:59:03.918Z,18.34
2023-03-24T12:02:08.322Z,18.46
2023-03-24T12:05:15.802Z,18.35
2023-03-24T12:08:25.125Z,18.15
2023-03-24T12:11:43.414Z,18.41
2023-03-24T12:15:27.406Z,18.31
2023-03-24T12:18:50.307Z,18.59
2023-03-24T12:22:17.977Z,18.75
2023-03-24T12:25:32.402Z,18.55
2023-03-24T12:28:45.814Z,18.25
2023-03-24T12:32:11.569Z,18.21
2023-03-24T12:35:39.551Z,18.35
2023-03-24T12:38:50.326Z,18.45
2023-03-24T12:42:19.230Z,18.30
2023-03-24T12:45:34.438Z,18.09
2023-03-24T12:49:11.900Z,17.68
2023-03-24T12:52:16.811Z,17.34
2023-03-24T12:55:26.029Z,16.34
2023-03-24T12:58:41.788Z,15.64
2023-03-24T13:01:46.788Z,13.51
2023-03-24T13:04:52.337Z,12.35
2023-03-24T13:07:59.207Z,12.35
2023-03-24T13:11:07.860Z,12.30
2023-03-24T13:14:15.392Z,12.40
2023-03-24T13:17:29.934Z,12.74
2023-03-24T13:20:54.684Z,13.28
2023-03-24T13:24:13.689Z,13.86
2023-03-24T13:27:21.800Z,14.17
2023-03-24T13:30:37.351Z,14.48
2023-03-24T13:33:41.281Z,14.89
2023-03-24T13:36:48.947Z,15.20
2023-03-24T13:39:58.771Z,15.45
2023-03-24T13:43:06.917Z,15.65
2023-03-24T13:46:13.674Z,15.62
2023-03-24T13:49:16.660Z,15.50
2023-03-24T13:52:28.054Z,15.57
2023-03-24T13:55:35.482Z,15.61
2023-03-24T13:58:49.865Z,15.13
2023-03-24T14:02:10.218Z,14.31
2023-03-24T14:05:30.468Z,13.97
2023-03-24T14:08:52.706Z,14.08
2023-03-24T14:12:03.560Z,14.19
2023-03-24T14:15:21.389Z,14.38
2023-03-24T14:18:23.025Z,14.31
2023-03-24T14:21:31.564Z,14.49
2023-03-24T14:24:33.204Z,14.43
2023-03-24T14:27:42.390Z,14.50
2023-03-24T14:31:17.098Z,14.64
2023-03-24T14:34:21.282Z,14.83
2023-03-24T14:37:23.295Z,15.09
2023-03-24T14:40:35.940Z,15.24
2023-03-24T14:43:40.571Z,15.25
2023-03-24T14:46:47.936Z,15.13
2023-03-24T14:49:52.764Z,15.17
2023-03-24T14:53:03.887Z,15.18
2023-03-24T14:56:11.772Z,15.24
2023-03-24T14:59:47.143Z,15.28
2023-03-24T15:02:52.277Z,15.26
2023-03-24T15:05:53.815Z,15.31
2023-03-24T15:09:07.483Z,15.20
2023-03-24T15:12:09.106Z,15.41
2023-03-24T15:15:23.120Z,15.70
2023-03-24T15:18:28.068Z,15.99
2023-03-24T15:21:33.815Z,16.40
2023-03-24T15:24:37.463Z,16.80
2023-03-24T15:27:39.597Z,17.25
2023-03-24T15:30:41.172Z,17.39
2023-03-24T15:33:43.555Z,17.46
2023-03-24T15:36:46.363Z,17.60
2023-03-24T15:39:59.216Z,17.51
2023-03-24T15:43:18.794Z,17.54
2023-03-24T15:51:11.771Z,18.71
2023-03-24T15:54:27.022Z,18.19
2023-03-24T15:57:29.240Z,17.61
2023-03-24T16:00:39.101Z,17.20
2023-03-24T16:03:43.032Z,17.18
2023-03-24T16:06:54.139Z,16.95
2023-03-24T16:10:05.232Z,16.62
2023-03-24T16:13:14.789Z,16.59
2023-03-24T16:16:16.276Z,16.54
2023-03-24T16:19:17.822Z,16.53
2023-03-24T16:22:19.441Z,16.61
2023-03-24T16:25:21.059Z,16.71
2023-03-24T16:28:27.430Z,16.95
2023-03-24T16:31:31.759Z,17.49
2023-03-24T16:34:33.246Z,18.87
2023-03-24T16:37:35.226Z,21.42
2023-03-24T16:40:45.473Z,23.67
2023-03-24T16:43:47.352Z,23.14
2023-03-24T16:46:51.873Z,23.60
2023-03-24T16:49:53.450Z,23.85
2023-03-24T16:52:55.313Z,25.29
2023-03-24T16:55:56.812Z,25.89
2023-03-24T16:58:58.406Z,26.28
2023-03-24T17:02:06.122Z,27.38
2023-03-24T17:05:28.304Z,26.37
2023-03-24T17:08:29.820Z,23.87
2023-03-24T17:11:37.165Z,20.18
2023-03-24T17:14:38.600Z,18.24
2023-03-24T17:17:40.229Z,17.63
2023-03-24T17:20:41.880Z,16.95
2023-03-24T17:23:46.739Z,16.21
2023-03-24T17:26:48.213Z,15.52
2023-03-24T17:29:49.755Z,14.81
2023-03-24T17:32:51.530Z,-0.39
2023-03-24T17:35:57.139Z,-144.80
